SLLP/LPB METAR and TAF weather

Enter ICAO airport designator
Station Type Date Time Source
SLLP METAR 2019/04/19 08:00 UTC NOAA

SLLP 190800Z 28004KT 240V020 9999 FEW004 FEW017CB SCT070 BKN200 06/05 Q1038


Station Type Date Time Source
SLLP Decoded METAR 2019/04/19 08:00 UTC NOAA

La Paz / Alto, Bolivia (SLLP) 16-31S 068-11W 4038M
Apr 19, 2019 - 04:00 AM EDT / 2019.04.19 0800 UTC
Wind: from the W (280 degrees) at 5 MPH (4 KT) (direction variable):0
Visibility: greater than 7 mile(s):0
Sky conditions: mostly cloudy
Weather: Cumulonimbus clouds observed
Temperature: 42 F (6 C)
Dew Point: 41 F (5 C)
Relative Humidity: 93%
Pressure (altimeter): 30.65 in. Hg (1038 hPa)
ob: SLLP 190800Z 28004KT 240V020 9999 FEW004 FEW017CB SCT070 BKN200 06/05 Q1038
cycle: 8

Station Type Date Time Source
SLLP TAF 2019/04/19 06:48 UTC NOAA

TAF TAF SLLP 190400Z 1906/2006 07006KT 4000E VCFG FEW002 SCT012 TX17/1920Z TN02/1910Z
TEMPO 1907/1910 0800 FG
BECMG 1912/1915 13008KT 9999 NSW SCT015 SCT070
TEMPO 1917/1921 27010KT 8000 VCTSSH FEW020 FEW023CB

Example: see airport list